createdAt,value
2022-07-26T00:04:07.053Z,1.97
2022-07-26T00:06:58.165Z,1.90
2022-07-26T00:09:56.034Z,2.30
2022-07-26T00:12:49.353Z,2.00
2022-07-26T00:16:10.176Z,1.80
2022-07-26T00:25:23.123Z,2.00
2022-07-26T00:28:14.401Z,2.20
2022-07-26T00:31:10.551Z,2.03
2022-07-26T00:34:03.840Z,2.10
2022-07-26T00:37:01.705Z,2.10
2022-07-26T00:42:19.672Z,2.40
2022-07-26T00:45:10.980Z,2.03
2022-07-26T00:51:31.684Z,2.20
2022-07-26T00:54:35.287Z,2.60
2022-07-26T01:00:03.562Z,1.87
2022-07-26T01:03:08.624Z,2.10
2022-07-26T01:06:06.422Z,2.40
2022-07-26T01:11:32.404Z,2.80
2022-07-26T01:17:29.740Z,2.20
2022-07-26T01:20:19.128Z,2.60
2022-07-26T01:23:02.458Z,2.53
2022-07-26T01:26:08.754Z,2.70
2022-07-26T01:28:58.972Z,2.20
2022-07-26T01:32:13.020Z,2.60
2022-07-26T01:34:51.439Z,2.70
2022-07-26T01:40:36.053Z,2.73
2022-07-26T01:43:09.627Z,2.80
2022-07-26T01:46:09.907Z,2.93
2022-07-26T01:48:48.233Z,2.40
2022-07-26T01:51:47.298Z,2.70
2022-07-26T01:54:24.841Z,2.20
2022-07-26T01:56:58.258Z,2.60
2022-07-26T01:59:35.888Z,2.23
2022-07-26T02:02:09.301Z,2.27
2022-07-26T02:04:59.404Z,2.23
2022-07-26T02:07:29.247Z,2.20
2022-07-26T02:10:01.205Z,2.10
2022-07-26T02:12:38.655Z,2.70
2022-07-26T02:15:09.562Z,2.07
2022-07-26T02:17:41.768Z,2.23
2022-07-26T02:20:21.258Z,2.27
2022-07-26T02:23:06.419Z,2.23
2022-07-26T02:25:35.809Z,2.23
2022-07-26T02:28:46.604Z,1.80
2022-07-26T02:31:17.802Z,2.40
2022-07-26T02:33:47.077Z,2.20
2022-07-26T02:36:17.863Z,1.97
2022-07-26T02:38:50.789Z,2.20
2022-07-26T02:41:25.440Z,1.83
2022-07-26T02:43:59.122Z,2.20
2022-07-26T02:46:32.452Z,2.07
2022-07-26T02:49:03.328Z,2.57
2022-07-26T02:51:33.792Z,2.23
2022-07-26T02:54:03.190Z,2.20
2022-07-26T02:56:34.708Z,1.77
2022-07-26T02:59:06.286Z,2.03
2022-07-26T03:01:36.609Z,1.87
2022-07-26T03:04:08.581Z,2.10
2022-07-26T03:06:41.324Z,1.60
2022-07-26T03:09:18.050Z,1.57
2022-07-26T03:11:54.100Z,1.80
2022-07-26T03:14:26.537Z,1.63
2022-07-26T03:17:00.489Z,1.80
2022-07-26T03:19:31.022Z,1.83
2022-07-26T03:22:03.203Z,1.50
2022-07-26T03:24:32.645Z,1.80
2022-07-26T03:27:03.379Z,1.47
2022-07-26T03:29:33.411Z,2.10
2022-07-26T03:32:10.310Z,1.90
2022-07-26T03:34:45.519Z,1.80
2022-07-26T03:37:19.942Z,1.93
2022-07-26T03:39:49.248Z,2.10
2022-07-26T03:42:26.026Z,1.93
2022-07-26T03:45:09.092Z,2.40
2022-07-26T03:47:51.178Z,1.90
2022-07-26T03:50:29.533Z,2.13
2022-07-26T03:53:04.384Z,2.47
2022-07-26T03:55:50.867Z,2.33
2022-07-26T03:58:21.492Z,2.77
2022-07-26T04:00:52.466Z,2.73
2022-07-26T04:03:23.800Z,3.23
2022-07-26T04:05:56.565Z,2.50
2022-07-26T04:08:26.694Z,2.97
2022-07-26T04:11:10.103Z,3.30
2022-07-26T04:13:41.472Z,2.80
2022-07-26T04:16:13.057Z,2.67
2022-07-26T04:18:44.463Z,2.93
2022-07-26T04:21:15.189Z,3.33
2022-07-26T04:23:49.217Z,3.13
2022-07-26T04:26:20.351Z,2.80
2022-07-26T04:28:51.294Z,2.80
2022-07-26T04:31:36.543Z,2.53
2022-07-26T04:34:05.876Z,2.47
2022-07-26T04:36:36.228Z,2.50
2022-07-26T04:39:05.176Z,1.87
2022-07-26T04:41:36.474Z,1.80
2022-07-26T04:44:05.325Z,1.60
2022-07-26T04:46:36.491Z,1.63
2022-07-26T04:49:06.683Z,1.70
2022-07-26T04:51:36.953Z,1.50
2022-07-26T04:54:06.170Z,1.20
2022-07-26T04:56:38.083Z,1.33
2022-07-26T04:59:07.074Z,1.00
2022-07-26T05:01:38.075Z,0.93
2022-07-26T05:04:07.141Z,1.30
2022-07-26T05:06:41.315Z,0.87
2022-07-26T05:09:11.104Z,1.00
2022-07-26T05:11:40.099Z,1.10
2022-07-26T05:14:09.114Z,1.43
2022-07-26T05:16:44.472Z,1.30
2022-07-26T05:19:15.020Z,1.07
2022-07-26T05:21:45.392Z,1.30
2022-07-26T05:24:14.026Z,1.00
2022-07-26T05:26:43.317Z,0.80
2022-07-26T05:29:18.244Z,0.90
2022-07-26T05:31:51.130Z,1.13
2022-07-26T05:34:26.975Z,1.43
2022-07-26T05:37:00.092Z,1.20
2022-07-26T05:39:33.668Z,1.70
2022-07-26T05:42:11.643Z,1.53
2022-07-26T05:44:53.575Z,1.33
2022-07-26T05:47:27.842Z,1.30
2022-07-26T05:49:59.266Z,1.53
2022-07-26T05:52:36.819Z,1.60
2022-07-26T05:55:17.821Z,1.33
2022-07-26T05:57:52.212Z,1.40
2022-07-26T06:00:34.196Z,1.50
2022-07-26T06:03:23.379Z,1.47
2022-07-26T06:05:55.337Z,1.50
2022-07-26T06:08:28.520Z,1.63
2022-07-26T06:10:59.548Z,1.70
2022-07-26T06:13:33.679Z,2.23
2022-07-26T06:16:02.717Z,2.57
2022-07-26T06:18:34.672Z,1.70
2022-07-26T06:21:03.779Z,2.37
2022-07-26T06:23:35.227Z,1.80
2022-07-26T06:26:04.630Z,1.70
2022-07-26T06:28:33.159Z,2.00
2022-07-26T06:31:01.983Z,1.60
2022-07-26T06:33:33.703Z,1.97
2022-07-26T06:36:02.381Z,1.50
2022-07-26T06:38:33.649Z,1.27
2022-07-26T06:41:04.910Z,1.57
2022-07-26T06:43:38.549Z,1.60
2022-07-26T06:46:10.232Z,1.90
2022-07-26T06:48:47.235Z,1.60
2022-07-26T06:51:16.892Z,1.77
2022-07-26T06:53:51.616Z,1.37
2022-07-26T06:56:30.557Z,1.50
2022-07-26T06:58:59.399Z,1.40
2022-07-26T07:01:58.036Z,1.17
2022-07-26T07:04:26.036Z,1.40
2022-07-26T07:06:56.755Z,1.40
2022-07-26T07:09:26.856Z,1.23
2022-07-26T07:12:09.919Z,1.50
2022-07-26T07:14:42.206Z,1.43
2022-07-26T07:17:20.060Z,1.50
2022-07-26T07:19:49.155Z,1.37
2022-07-26T07:22:23.218Z,1.10
2022-07-26T07:24:53.352Z,1.00
2022-07-26T07:27:23.720Z,1.20
2022-07-26T07:29:53.181Z,1.00
2022-07-26T07:32:22.317Z,1.30
2022-07-26T07:35:01.602Z,1.00
2022-07-26T07:37:53.165Z,1.17
2022-07-26T07:40:26.076Z,1.47
2022-07-26T07:42:56.297Z,1.47
2022-07-26T07:45:26.647Z,1.30
2022-07-26T07:47:55.930Z,1.50
2022-07-26T07:50:31.373Z,1.10
2022-07-26T07:53:02.648Z,1.33
2022-07-26T07:55:41.482Z,1.33
2022-07-26T07:58:28.073Z,1.23
2022-07-26T08:01:00.513Z,1.20
2022-07-26T08:03:40.597Z,0.83
2022-07-26T08:06:10.678Z,0.83
2022-07-26T08:08:40.153Z,1.40
2022-07-26T08:11:09.243Z,1.60
2022-07-26T08:13:47.988Z,1.10
2022-07-26T08:16:20.788Z,0.90
2022-07-26T08:18:57.656Z,0.80
2022-07-26T08:21:29.488Z,0.90
2022-07-26T08:24:13.896Z,1.03
2022-07-26T08:26:42.718Z,1.00
2022-07-26T08:29:16.683Z,1.43
2022-07-26T08:31:45.881Z,1.13
2022-07-26T08:34:15.448Z,1.20
2022-07-26T08:37:06.947Z,1.30
2022-07-26T08:39:45.912Z,1.03
2022-07-26T08:42:23.775Z,1.20
2022-07-26T08:45:00.384Z,1.00
2022-07-26T08:47:38.073Z,1.27
2022-07-26T08:50:27.255Z,1.67
2022-07-26T08:53:09.570Z,2.00
2022-07-26T08:56:05.376Z,1.90
2022-07-26T08:58:30.347Z,1.27
2022-07-26T09:01:15.218Z,1.60
2022-07-26T09:03:44.187Z,1.33
2022-07-26T09:06:13.670Z,0.90
2022-07-26T09:08:59.552Z,1.30
2022-07-26T09:11:33.764Z,2.07
2022-07-26T09:14:20.044Z,2.10
2022-07-26T09:17:05.122Z,1.57
2022-07-26T09:19:36.984Z,1.97
2022-07-26T09:22:10.945Z,1.73
2022-07-26T09:24:46.046Z,1.40
2022-07-26T09:27:18.094Z,1.60
2022-07-26T09:29:57.661Z,1.40
2022-07-26T09:32:29.676Z,1.47
2022-07-26T09:35:44.106Z,1.60
2022-07-26T09:38:06.716Z,1.63
2022-07-26T09:40:38.714Z,1.07
2022-07-26T09:43:13.311Z,1.03
2022-07-26T09:45:47.712Z,0.90
2022-07-26T09:48:16.800Z,1.10
2022-07-26T09:50:50.703Z,1.07
2022-07-26T09:53:31.001Z,1.10
2022-07-26T09:56:05.012Z,1.20
2022-07-26T09:58:33.768Z,0.90
2022-07-26T10:01:09.137Z,1.77
2022-07-26T10:03:37.886Z,1.40
2022-07-26T10:06:13.837Z,1.00
2022-07-26T10:08:43.852Z,1.17
2022-07-26T10:11:12.685Z,1.00
2022-07-26T10:13:47.392Z,1.27
2022-07-26T10:16:30.454Z,1.57
2022-07-26T10:19:04.543Z,1.57
2022-07-26T10:21:35.467Z,1.17
2022-07-26T10:24:04.845Z,1.30
2022-07-26T10:26:42.142Z,1.40
2022-07-26T10:29:33.280Z,1.10
2022-07-26T10:32:21.523Z,1.17
2022-07-26T10:34:50.326Z,1.30
2022-07-26T10:37:29.943Z,1.50
2022-07-26T10:40:27.203Z,1.10
2022-07-26T10:42:57.140Z,1.30
2022-07-26T10:45:25.921Z,1.60
2022-07-26T10:48:13.781Z,1.80
2022-07-26T10:50:45.213Z,1.73
2022-07-26T10:53:19.420Z,1.40
2022-07-26T10:55:49.112Z,1.47
2022-07-26T10:58:17.798Z,1.20
2022-07-26T11:00:56.875Z,1.50
2022-07-26T11:03:36.750Z,1.70
2022-07-26T11:06:26.896Z,1.40
2022-07-26T11:08:59.957Z,1.27
2022-07-26T11:11:30.770Z,1.23
2022-07-26T11:14:12.758Z,1.40
2022-07-26T11:16:44.264Z,1.37
2022-07-26T11:19:16.727Z,1.50
2022-07-26T11:21:47.977Z,1.30
2022-07-26T11:24:22.182Z,1.10
2022-07-26T11:26:51.178Z,1.50
2022-07-26T11:29:38.563Z,1.23
2022-07-26T11:32:18.193Z,1.67
2022-07-26T11:34:47.310Z,1.33
2022-07-26T11:37:20.461Z,1.70
2022-07-26T11:39:50.669Z,1.30
2022-07-26T11:42:24.873Z,1.37
2022-07-26T11:44:54.338Z,1.30
2022-07-26T11:47:25.393Z,1.40
2022-07-26T11:50:16.386Z,1.40
2022-07-26T11:52:51.993Z,1.90
2022-07-26T11:55:31.682Z,1.50
2022-07-26T11:58:06.062Z,1.50
2022-07-26T12:00:34.841Z,1.70
2022-07-26T12:03:06.194Z,1.83
2022-07-26T12:05:34.993Z,1.80
2022-07-26T12:08:06.775Z,1.70
2022-07-26T12:10:36.845Z,1.77
2022-07-26T12:13:10.396Z,2.30
2022-07-26T12:15:50.220Z,1.60
2022-07-26T12:18:30.909Z,1.70
2022-07-26T12:21:06.259Z,1.47
2022-07-26T12:23:48.435Z,2.13
2022-07-26T12:26:22.460Z,1.83
2022-07-26T12:28:51.217Z,1.60
2022-07-26T12:31:26.612Z,1.73
2022-07-26T12:33:55.580Z,1.77
2022-07-26T12:36:27.530Z,1.17
2022-07-26T12:38:58.434Z,1.67
2022-07-26T12:41:38.415Z,1.83
2022-07-26T12:44:16.625Z,1.43
2022-07-26T12:46:46.247Z,1.57
2022-07-26T12:49:16.181Z,1.80
2022-07-26T12:51:49.854Z,1.40
2022-07-26T12:54:20.030Z,1.60
2022-07-26T12:56:50.410Z,1.50
2022-07-26T12:59:18.941Z,1.47
2022-07-26T13:01:47.499Z,1.27
2022-07-26T13:04:21.880Z,1.30
2022-07-26T13:06:53.379Z,1.57
2022-07-26T13:09:25.252Z,1.63
2022-07-26T13:11:55.514Z,1.63
2022-07-26T13:14:24.160Z,1.63
2022-07-26T13:16:52.892Z,1.30
2022-07-26T13:19:21.526Z,1.17
2022-07-26T13:21:52.992Z,1.60
2022-07-26T13:24:28.088Z,1.50
2022-07-26T13:26:59.359Z,1.87
2022-07-26T13:29:29.131Z,1.53
2022-07-26T13:31:58.069Z,1.40
2022-07-26T13:34:34.918Z,1.57
2022-07-26T13:37:08.520Z,1.70
2022-07-26T13:39:37.363Z,1.53
2022-07-26T13:42:07.885Z,1.50
2022-07-26T13:44:37.794Z,1.27
2022-07-26T13:47:06.642Z,1.20
2022-07-26T13:49:37.652Z,1.33
2022-07-26T13:52:15.542Z,1.30
2022-07-26T13:54:50.036Z,1.13
2022-07-26T13:57:20.486Z,1.10
2022-07-26T13:59:55.085Z,1.03
2022-07-26T14:02:26.937Z,1.20
2022-07-26T14:04:59.654Z,1.10
2022-07-26T14:07:28.406Z,1.67
2022-07-26T14:09:57.341Z,1.00
2022-07-26T14:12:36.081Z,1.20
2022-07-26T14:15:19.755Z,1.17
2022-07-26T14:17:52.627Z,0.90
2022-07-26T14:20:24.306Z,1.00
2022-07-26T14:22:54.040Z,1.10
2022-07-26T14:25:27.534Z,1.20
2022-07-26T14:28:03.495Z,1.30
2022-07-26T14:30:34.593Z,1.30
2022-07-26T14:33:03.331Z,0.93
2022-07-26T14:35:32.313Z,1.43
2022-07-26T14:38:04.151Z,1.20
2022-07-26T14:40:33.183Z,1.50
2022-07-26T14:43:03.758Z,1.17
2022-07-26T14:45:32.614Z,1.17
2022-07-26T14:48:19.363Z,1.47
2022-07-26T14:51:09.470Z,1.30
2022-07-26T14:53:43.507Z,1.40
2022-07-26T14:56:12.579Z,1.10
2022-07-26T14:58:42.892Z,1.20
2022-07-26T15:01:19.451Z,1.20
2022-07-26T15:03:57.343Z,0.90
2022-07-26T15:06:33.340Z,1.30
2022-07-26T15:09:01.899Z,0.90
2022-07-26T15:14:39.887Z,1.00
2022-07-26T15:17:11.795Z,1.50
2022-07-26T15:19:43.855Z,1.47
2022-07-26T15:25:15.137Z,1.20
2022-07-26T15:27:52.882Z,1.20
2022-07-26T15:30:23.986Z,1.17
2022-07-26T15:32:59.383Z,1.27
2022-07-26T15:35:28.306Z,1.20
2022-07-26T15:38:04.713Z,1.10
2022-07-26T15:40:35.570Z,1.30
2022-07-26T15:43:10.535Z,1.17
2022-07-26T15:45:44.527Z,1.17
2022-07-26T15:48:22.172Z,1.30
2022-07-26T15:50:51.685Z,1.20
2022-07-26T15:53:46.292Z,1.27
2022-07-26T15:56:21.375Z,1.50
2022-07-26T15:58:59.087Z,1.60
2022-07-26T16:01:39.594Z,1.30
2022-07-26T16:04:20.342Z,1.10
2022-07-26T16:06:52.184Z,1.20
2022-07-26T16:09:22.600Z,1.47
2022-07-26T16:11:56.072Z,1.30
2022-07-26T16:14:27.971Z,1.10
2022-07-26T16:17:08.485Z,1.33
2022-07-26T16:23:03.000Z,1.10
2022-07-26T16:25:31.757Z,1.17
2022-07-26T16:28:03.342Z,3.80
2022-07-26T16:30:37.760Z,1.20
2022-07-26T16:33:15.963Z,1.20
2022-07-26T16:35:49.643Z,1.10
2022-07-26T16:38:24.188Z,1.10
2022-07-26T16:40:57.076Z,1.03
2022-07-26T16:43:25.965Z,1.03
2022-07-26T16:45:57.236Z,1.10
2022-07-26T16:48:34.297Z,0.80
2022-07-26T16:51:03.409Z,1.10
2022-07-26T16:53:39.223Z,1.00
2022-07-26T16:56:12.259Z,0.93
2022-07-26T16:58:41.395Z,1.10
2022-07-26T17:01:14.232Z,0.90
2022-07-26T17:03:50.741Z,1.00
2022-07-26T17:06:22.407Z,1.27
2022-07-26T17:08:51.223Z,1.00
2022-07-26T17:11:19.982Z,0.80
2022-07-26T17:13:48.992Z,0.97
2022-07-26T17:16:25.330Z,1.10
2022-07-26T17:18:55.978Z,0.87
2022-07-26T17:21:24.865Z,1.13
2022-07-26T17:24:00.508Z,1.10
2022-07-26T17:26:38.263Z,0.97
2022-07-26T17:29:09.744Z,1.00
2022-07-26T17:31:52.425Z,0.90
2022-07-26T17:34:27.691Z,0.80
2022-07-26T17:40:00.361Z,0.70
2022-07-26T17:42:30.487Z,1.07
2022-07-26T17:45:05.337Z,1.10
2022-07-26T17:47:40.302Z,0.70
2022-07-26T17:50:36.660Z,1.17
2022-07-26T17:53:14.960Z,0.90
2022-07-26T17:55:51.674Z,1.03
2022-07-26T17:58:24.377Z,1.00
2022-07-26T18:00:53.140Z,1.20
2022-07-26T18:03:28.949Z,1.30
2022-07-26T18:06:10.611Z,1.50
2022-07-26T18:08:46.348Z,0.80
2022-07-26T18:11:16.278Z,0.93
2022-07-26T18:13:50.800Z,1.10
2022-07-26T18:16:32.111Z,1.37
2022-07-26T18:19:15.858Z,0.90
2022-07-26T18:21:48.503Z,1.10
2022-07-26T18:24:22.654Z,0.90
2022-07-26T18:27:01.531Z,0.83
2022-07-26T18:29:45.006Z,1.17
2022-07-26T18:32:19.715Z,1.00
2022-07-26T18:35:06.484Z,1.30
2022-07-26T18:37:48.603Z,1.10
2022-07-26T18:40:38.987Z,1.10
2022-07-26T18:43:09.830Z,1.37
2022-07-26T18:45:45.343Z,1.30
2022-07-26T18:48:21.708Z,1.10
2022-07-26T18:51:05.228Z,0.97
2022-07-26T18:56:41.677Z,1.40
2022-07-26T18:59:29.196Z,1.40
2022-07-26T19:02:17.643Z,1.33
2022-07-26T19:05:03.390Z,1.10
2022-07-26T19:07:45.910Z,1.23
2022-07-26T19:10:29.184Z,1.00
2022-07-26T19:13:42.624Z,0.90
2022-07-26T19:16:20.109Z,1.00
2022-07-26T19:18:57.611Z,0.77
2022-07-26T19:21:47.230Z,1.00
2022-07-26T19:26:12.208Z,1.07
2022-07-26T19:27:53.720Z,1.13
2022-07-26T19:33:20.888Z,0.80
2022-07-26T19:35:57.683Z,1.10
2022-07-26T19:38:33.305Z,1.10
2022-07-26T19:41:02.227Z,0.97
2022-07-26T19:43:36.898Z,0.90
2022-07-26T19:46:05.730Z,0.80
2022-07-26T19:48:39.498Z,1.30
2022-07-26T19:51:10.865Z,1.37
2022-07-26T19:53:39.540Z,1.10
2022-07-26T19:56:13.686Z,1.13
2022-07-26T19:58:42.784Z,1.33
2022-07-26T20:01:16.509Z,1.20
2022-07-26T20:03:49.615Z,0.80
2022-07-26T20:06:18.904Z,0.80
2022-07-26T20:08:50.805Z,0.80
2022-07-26T20:11:36.288Z,0.80
2022-07-26T20:14:08.343Z,1.40
2022-07-26T20:16:41.240Z,1.10
2022-07-26T20:19:19.342Z,1.10
2022-07-26T20:22:08.959Z,1.20
2022-07-26T20:24:38.671Z,0.73
2022-07-26T20:27:27.787Z,1.00
2022-07-26T20:30:01.055Z,1.10
2022-07-26T20:32:52.912Z,1.13
2022-07-26T20:35:31.915Z,0.90
2022-07-26T20:38:26.023Z,0.87
2022-07-26T20:44:42.442Z,0.87
2022-07-26T20:54:03.929Z,1.10
2022-07-26T21:00:06.815Z,0.90
2022-07-26T21:02:52.427Z,1.00
2022-07-26T21:05:41.287Z,0.80
2022-07-26T21:08:15.271Z,1.10
2022-07-26T21:10:52.634Z,0.83
2022-07-26T21:13:22.606Z,1.17
2022-07-26T21:16:01.339Z,0.90
2022-07-26T21:18:34.413Z,1.00
2022-07-26T21:21:06.285Z,1.00
2022-07-26T21:23:44.724Z,0.83
2022-07-26T21:26:24.828Z,1.10
2022-07-26T21:29:19.924Z,1.27
2022-07-26T21:31:48.998Z,1.17
2022-07-26T21:34:35.424Z,0.97
2022-07-26T21:37:08.511Z,1.10
2022-07-26T21:39:54.741Z,1.00
2022-07-26T21:42:31.750Z,0.80
2022-07-26T21:45:04.358Z,1.00
2022-07-26T21:47:38.679Z,0.90
2022-07-26T21:50:12.582Z,0.93
2022-07-26T21:52:52.856Z,0.77
2022-07-26T21:55:24.605Z,1.10
2022-07-26T21:57:55.705Z,0.77
2022-07-26T22:00:31.708Z,1.20
2022-07-26T22:03:29.889Z,1.23
2022-07-26T22:06:01.348Z,0.90
2022-07-26T22:08:34.686Z,0.97
2022-07-26T22:11:08.493Z,1.10
2022-07-26T22:13:39.074Z,1.00
2022-07-26T22:16:11.088Z,1.30
2022-07-26T22:18:48.620Z,1.30
2022-07-26T22:21:42.312Z,1.40
2022-07-26T22:24:17.361Z,1.40
2022-07-26T22:26:48.609Z,1.47
2022-07-26T22:29:22.495Z,1.30
2022-07-26T22:31:51.415Z,1.27
2022-07-26T22:34:21.341Z,1.03
2022-07-26T22:37:09.009Z,1.50
2022-07-26T22:39:41.112Z,0.90
2022-07-26T22:42:16.028Z,1.23
2022-07-26T22:45:00.795Z,0.87
2022-07-26T22:47:34.500Z,0.97
2022-07-26T22:50:07.234Z,0.90
2022-07-26T22:52:50.324Z,1.27
2022-07-26T22:55:25.552Z,1.07
2022-07-26T22:58:01.695Z,1.13
2022-07-26T23:00:31.652Z,1.20
2022-07-26T23:03:04.869Z,1.60
2022-07-26T23:05:45.910Z,1.20
2022-07-26T23:08:46.880Z,1.10
2022-07-26T23:11:23.713Z,1.20
2022-07-26T23:13:59.032Z,1.30
2022-07-26T23:16:34.438Z,1.00
2022-07-26T23:21:56.703Z,1.30
2022-07-26T23:24:28.612Z,1.13
2022-07-26T23:27:02.850Z,1.20
2022-07-26T23:29:33.364Z,1.20
2022-07-26T23:32:06.990Z,1.20
2022-07-26T23:34:37.502Z,1.20
2022-07-26T23:37:06.519Z,1.13
2022-07-26T23:39:36.822Z,1.17
2022-07-26T23:42:18.045Z,1.20
2022-07-26T23:44:48.247Z,1.60
2022-07-26T23:47:30.326Z,1.20
2022-07-26T23:50:03.720Z,1.40
2022-07-26T23:52:32.818Z,1.27
2022-07-26T23:55:10.854Z,1.47
2022-07-26T23:57:39.419Z,1.50
